Time;durP1;ratioP1;P1;durP2;ratioP2;P2;SDS_P1;SDS_P2;PMS_P1;PMS_P2;Temp;Humidity;BMP_temperature;BMP_pressure;BME280_temperature;BME280_humidity;BME280_pressure;Samples;Min_cycle;Max_cycle;Signal;HPM_P1;HPM_P2
2022/09/01 00:03:18;;;;;;;12.70;11.50;;;26.70;66.10;;;;;;4749086;55;21623;-28
2022/09/01 00:08:21;;;;;;;13.02;11.82;;;26.70;66.00;;;;;;4737189;59;20992;-29
2022/09/01 00:13:21;;;;;;;11.85;10.77;;;26.70;66.10;;;;;;4758101;55;21617;-29
2022/09/01 00:18:22;;;;;;;12.30;11.18;;;26.70;66.10;;;;;;4799789;55;20987;-28
2022/09/01 00:23:24;;;;;;;11.75;10.65;;;26.70;66.20;;;;;;4778423;55;21091;-29
2022/09/01 00:28:25;;;;;;;11.90;10.73;;;26.70;66.10;;;;;;4745613;55;21051;-28
2022/09/01 00:33:26;;;;;;;12.02;10.93;;;26.70;66.10;;;;;;4764283;55;21461;-33
2022/09/01 00:38:27;;;;;;;11.68;10.52;;;26.70;66.10;;;;;;4761329;55;21103;-31
2022/09/01 00:43:47;;;;;;;12.13;11.02;;;26.70;66.10;;;;;;4770926;55;21047;-35
2022/09/01 00:48:58;;;;;;;12.10;10.80;;;26.70;66.20;;;;;;4768935;55;20980;-37
2022/09/01 00:54:00;;;;;;;12.10;10.90;;;26.70;66.20;;;;;;4736606;59;21026;-34
2022/09/01 00:59:01;;;;;;;11.85;10.75;;;26.70;66.20;;;;;;4738965;55;21094;-35
2022/09/01 01:04:05;;;;;;;11.82;10.73;;;26.70;66.20;;;;;;4742199;55;21067;-37
2022/09/01 01:09:05;;;;;;;11.07;10.07;;;26.70;66.20;;;;;;4818009;55;21028;-33
2022/09/01 01:14:11;;;;;;;12.10;11.00;;;26.70;66.20;;;;;;4746304;55;21560;-31
2022/09/01 01:25:56;;;;;;;11.02;10.02;;;26.70;66.20;;;;;;4739032;55;21027;-32
2022/09/01 01:31:10;;;;;;;11.95;10.80;;;26.70;66.30;;;;;;4752660;55;21811;-27
2022/09/01 01:36:35;;;;;;;12.57;11.38;;;26.70;66.30;;;;;;4756409;55;21560;-30
2022/09/01 01:41:39;;;;;;;11.50;10.50;;;26.70;66.30;;;;;;4743794;55;21500;-30
2022/09/01 01:46:44;;;;;;;11.50;10.48;;;26.70;66.30;;;;;;4780276;55;21474;-26
2022/09/01 01:51:48;;;;;;;12.00;10.90;;;26.70;66.30;;;;;;4745515;55;20991;-32
2022/09/01 01:56:49;;;;;;;11.65;10.57;;;26.70;66.40;;;;;;4754611;55;21035;-36
2022/09/01 02:01:50;;;;;;;11.35;10.32;;;26.70;66.40;;;;;;4749471;55;21330;-26
2022/09/01 02:06:51;;;;;;;11.10;10.05;;;26.70;66.40;;;;;;4778240;55;21808;-31
2022/09/01 02:11:56;;;;;;;11.80;10.60;;;26.70;66.40;;;;;;4756324;55;21069;-28
2022/09/01 02:16:57;;;;;;;12.13;10.90;;;26.70;66.40;;;;;;4784731;55;21530;-30
2022/09/01 02:21:59;;;;;;;11.25;10.25;;;26.70;66.50;;;;;;4774487;55;21019;-29
2022/09/01 02:27:00;;;;;;;11.55;10.52;;;26.70;66.40;;;;;;4736387;59;21178;-32
2022/09/01 02:32:00;;;;;;;11.48;10.38;;;26.70;66.40;;;;;;4775226;55;20988;-41
2022/09/01 02:37:02;;;;;;;11.25;9.85;;;26.70;66.50;;;;;;4764226;55;21703;-31
2022/09/01 02:42:03;;;;;;;12.23;11.05;;;26.70;66.40;;;;;;4765256;55;21098;-27
2022/09/01 02:47:08;;;;;;;11.65;10.55;;;26.70;66.40;;;;;;4736701;55;20992;-35
2022/09/01 02:52:09;;;;;;;12.13;10.93;;;26.70;66.50;;;;;;4749006;55;21007;-29
2022/09/01 02:57:11;;;;;;;11.52;10.43;;;26.70;66.50;;;;;;4736954;55;21051;-27
2022/09/01 03:02:12;;;;;;;11.07;9.90;;;26.70;66.50;;;;;;4750405;55;20976;-28
2022/09/01 03:07:12;;;;;;;12.15;10.95;;;26.70;66.50;;;;;;4762950;55;21059;-27
2022/09/01 03:12:13;;;;;;;12.07;10.82;;;26.70;66.50;;;;;;4752822;55;21458;-27
2022/09/01 03:17:14;;;;;;;11.73;10.50;;;26.60;66.40;;;;;;4750004;55;21071;-26
2022/09/01 03:22:15;;;;;;;11.60;10.50;;;26.70;66.50;;;;;;4741262;55;21003;-27
2022/09/01 03:27:16;;;;;;;12.35;11.10;;;26.60;66.40;;;;;;4769008;55;21569;-26
2022/09/01 03:32:17;;;;;;;12.30;11.05;;;26.70;66.50;;;;;;4751039;55;21545;-30
2022/09/01 03:37:19;;;;;;;12.85;11.65;;;26.60;66.40;;;;;;4767870;55;21545;-27
2022/09/01 03:42:29;;;;;;;12.70;11.40;;;26.70;66.50;;;;;;4786675;55;22087;-36
2022/09/01 03:47:32;;;;;;;13.00;11.43;;;26.70;66.50;;;;;;4746434;55;21481;-35
2022/09/01 03:52:35;;;;;;;15.90;11.73;;;26.60;66.40;;;;;;4774829;55;21449;-29
2022/09/01 03:57:41;;;;;;;12.40;11.20;;;26.60;66.50;;;;;;4743993;55;21580;-33
2022/09/01 04:02:42;;;;;;;12.73;11.47;;;26.60;66.50;;;;;;4741868;55;21018;-26
2022/09/01 04:07:44;;;;;;;12.80;11.02;;;26.60;66.50;;;;;;4760707;55;20995;-27
2022/09/01 04:12:45;;;;;;;12.88;11.60;;;26.60;66.40;;;;;;4758799;55;21540;-33
2022/09/01 04:23:09;;;;;;;12.63;11.43;;;26.60;66.40;;;;;;4736982;55;21019;-30
2022/09/01 04:28:21;;;;;;;14.90;11.80;;;26.60;66.30;;;;;;4747925;55;21577;-33
2022/09/01 04:33:35;;;;;;;13.55;11.95;;;26.60;66.40;;;;;;4736037;59;21504;-26
2022/09/01 04:38:36;;;;;;;13.48;11.88;;;26.70;66.40;;;;;;4835383;55;20995;-33
2022/09/01 04:43:39;;;;;;;12.95;11.63;;;26.60;66.30;;;;;;4770265;55;21015;-29
2022/09/01 04:48:43;;;;;;;12.88;11.68;;;26.60;66.20;;;;;;4757635;55;21605;-30
2022/09/01 04:53:47;;;;;;;12.80;11.32;;;26.60;66.20;;;;;;4770219;55;21000;-27
2022/09/01 04:58:49;;;;;;;14.15;12.35;;;26.60;66.20;;;;;;4755735;55;21481;-28
2022/09/01 05:04:00;;;;;;;12.35;11.02;;;26.60;66.10;;;;;;4736688;55;21019;-33
2022/09/01 05:09:01;;;;;;;12.60;11.30;;;26.60;66.20;;;;;;4758116;55;21372;-36
2022/09/01 05:14:03;;;;;;;12.80;11.35;;;26.60;66.10;;;;;;4779286;55;20983;-28
2022/09/01 05:19:05;;;;;;;12.48;11.20;;;26.60;66.00;;;;;;4764557;55;21115;-27
2022/09/01 05:24:06;;;;;;;11.95;10.82;;;26.60;66.00;;;;;;4752999;55;21070;-28
2022/09/01 05:29:12;;;;;;;11.38;10.18;;;26.60;66.00;;;;;;4741689;55;21557;-38
2022/09/01 05:34:21;;;;;;;12.37;11.13;;;26.60;65.90;;;;;;4747406;55;21469;-34
2022/09/01 05:39:23;;;;;;;12.70;11.40;;;26.60;65.80;;;;;;4762087;55;20999;-25
2022/09/01 05:44:24;;;;;;;11.88;10.68;;;26.60;65.70;;;;;;4757672;55;21458;-27
2022/09/01 05:49:27;;;;;;;12.23;10.95;;;26.60;65.80;;;;;;4748030;55;22143;-26
2022/09/01 05:54:28;;;;;;;11.93;10.73;;;26.60;66.40;;;;;;4744193;55;21352;-31
2022/09/01 05:59:32;;;;;;;11.82;10.73;;;26.60;65.60;;;;;;4740286;55;21075;-27
2022/09/01 06:04:33;;;;;;;13.13;11.75;;;26.60;65.50;;;;;;4764316;55;21056;-27
2022/09/01 06:09:40;;;;;;;11.43;10.32;;;26.60;65.50;;;;;;4746882;55;21477;-33
2022/09/01 06:14:41;;;;;;;12.35;11.15;;;26.60;65.50;;;;;;4741452;55;20972;-28
2022/09/01 06:19:42;;;;;;;13.07;11.55;;;26.60;65.40;;;;;;4762157;55;21011;-34
2022/09/01 06:24:43;;;;;;;11.95;10.73;;;26.60;65.40;;;;;;4746842;55;21051;-29
2022/09/01 06:29:44;;;;;;;11.88;10.75;;;26.60;65.40;;;;;;4789679;55;21481;-29
2022/09/01 06:34:50;;;;;;;12.50;11.20;;;26.50;65.20;;;;;;4768799;55;21438;-31
2022/09/01 06:39:50;;;;;;;11.77;10.57;;;26.60;65.40;;;;;;4740448;55;21027;-29
2022/09/01 06:44:54;;;;;;;12.50;10.85;;;26.50;65.10;;;;;;4752904;55;20999;-31
2022/09/01 06:49:57;;;;;;;10.68;9.70;;;26.60;65.20;;;;;;4751633;55;21035;-28
2022/09/01 06:54:58;;;;;;;11.98;10.68;;;26.50;65.10;;;;;;4736570;56;21941;-32
2022/09/01 06:59:59;;;;;;;17.45;9.70;;;26.50;65.10;;;;;;4748040;55;21035;-33
2022/09/01 07:05:00;;;;;;;12.50;8.40;;;26.50;59.70;;;;;;4785669;55;21015;-26
2022/09/01 07:10:03;;;;;;;11.50;6.75;;;26.30;58.60;;;;;;4739875;55;21966;-32
2022/09/01 07:15:05;;;;;;;14.55;9.02;;;26.20;57.90;;;;;;4748010;55;21015;-35
2022/09/01 07:20:09;;;;;;;10.82;8.80;;;26.20;57.70;;;;;;4749779;55;21655;-32
2022/09/01 07:25:11;;;;;;;26.80;22.15;;;26.10;57.50;;;;;;4746950;55;21457;-31
2022/09/01 07:30:12;;;;;;;20.12;14.75;;;26.20;57.60;;;;;;4751523;55;20992;-32
2022/09/01 07:35:18;;;;;;;20.88;14.95;;;26.10;57.00;;;;;;4747497;55;21493;-32
2022/09/01 07:40:21;;;;;;;34.83;19.92;;;26.10;57.10;;;;;;4740237;55;21072;-34
2022/09/01 07:45:24;;;;;;;25.12;15.73;;;26.10;57.00;;;;;;4761413;55;22347;-26
2022/09/01 07:50:27;;;;;;;19.85;14.45;;;26.10;56.70;;;;;;4748419;55;21573;-27
2022/09/01 07:55:28;;;;;;;23.60;14.87;;;26.00;56.50;;;;;;4753699;55;21878;-30
2022/09/01 08:00:30;;;;;;;20.08;14.80;;;26.00;56.30;;;;;;4746341;55;21039;-32
2022/09/01 08:05:33;;;;;;;23.60;16.62;;;26.00;56.30;;;;;;4752024;55;21130;-31
2022/09/01 08:10:39;;;;;;;23.23;15.75;;;26.00;56.40;;;;;;4736390;59;21007;-29
2022/09/01 08:15:40;;;;;;;42.65;28.12;;;26.00;56.50;;;;;;4760903;55;21608;-29
2022/09/01 08:20:44;;;;;;;46.40;31.25;;;26.10;56.70;;;;;;4739819;55;21118;-30
2022/09/01 08:25:46;;;;;;;43.35;29.90;;;26.10;56.80;;;;;;4736990;55;21556;-32
2022/09/01 08:30:47;;;;;;;29.80;22.40;;;26.10;56.70;;;;;;4761136;55;21569;-28
2022/09/01 08:35:48;;;;;;;34.30;23.90;;;26.10;56.80;;;;;;4745778;55;20983;-31
2022/09/01 08:40:53;;;;;;;32.17;26.00;;;26.10;56.90;;;;;;4739622;55;21088;-32
2022/09/01 08:45:57;;;;;;;53.35;36.20;;;26.10;57.00;;;;;;4736767;59;20971;-29
2022/09/01 08:51:24;;;;;;;40.70;30.25;;;26.10;57.20;;;;;;4736556;59;21007;-29
2022/09/01 08:56:26;;;;;;;39.58;29.67;;;26.10;57.30;;;;;;4759405;55;20972;-27
2022/09/01 09:01:44;;;;;;;40.75;30.20;;;26.20;57.90;;;;;;4760594;55;21079;-28
2022/09/01 09:09:30;;;;;;;39.38;29.63;;;26.30;57.50;;;;;;4735156;59;21079;-30
2022/09/01 09:17:34;;;;;;;37.63;28.65;;;26.30;57.70;;;;;;4746625;55;21513;-29
2022/09/01 09:22:36;;;;;;;33.22;24.92;;;26.40;57.70;;;;;;4738365;55;20999;-27
2022/09/01 09:27:47;;;;;;;38.25;27.85;;;26.40;56.90;;;;;;4754580;55;21524;-28
2022/09/01 09:33:02;;;;;;;54.10;36.28;;;26.30;56.70;;;;;;4735808;59;20995;-32
2022/09/01 09:38:37;;;;;;;35.33;23.20;;;26.30;57.10;;;;;;4761736;55;21564;-30
2022/09/01 09:43:57;;;;;;;28.30;22.52;;;26.20;56.90;;;;;;4747212;55;21286;-34
2022/09/01 09:54:12;;;;;;;29.98;21.55;;;26.20;57.10;;;;;;4737578;55;21019;-36
2022/09/01 09:59:29;;;;;;;22.10;14.93;;;26.10;56.70;;;;;;4775193;55;21785;-29
2022/09/01 10:04:34;;;;;;;23.30;18.27;;;26.00;56.40;;;;;;4741972;55;20999;-31
2022/09/01 10:09:37;;;;;;;28.27;22.40;;;26.00;56.50;;;;;;4737695;59;21989;-27
2022/09/01 10:14:46;;;;;;;25.55;19.30;;;26.00;56.40;;;;;;4785578;55;21545;-33
2022/09/01 10:20:04;;;;;;;24.00;18.35;;;26.00;56.10;;;;;;4751941;55;21505;-28
2022/09/01 10:25:08;;;;;;;30.48;22.27;;;26.00;56.10;;;;;;4742379;55;20991;-27
2022/09/01 10:30:17;;;;;;;38.20;23.75;;;26.00;56.00;;;;;;4781102;55;21481;-29
2022/09/01 10:35:34;;;;;;;48.05;36.88;;;26.00;56.10;;;;;;4747853;55;21075;-32
2022/09/01 10:40:39;;;;;;;33.45;27.98;;;26.10;56.10;;;;;;4780941;55;21034;-32
2022/09/01 10:45:40;;;;;;;27.90;21.27;;;26.10;56.00;;;;;;4770427;55;21433;-33
2022/09/01 10:50:41;;;;;;;34.08;23.60;;;26.00;55.70;;;;;;4745694;55;20991;-35
2022/09/01 10:55:58;;;;;;;28.65;22.27;;;26.00;55.70;;;;;;4746127;55;21517;-30
2022/09/01 11:01:00;;;;;;;28.23;21.25;;;26.10;55.60;;;;;;4757116;55;21533;-30
2022/09/01 11:06:04;;;;;;;23.02;18.87;;;26.10;55.50;;;;;;4742499;55;21462;-26
2022/09/01 11:13:47;;;;;;;24.20;19.98;;;26.20;55.70;;;;;;4754717;55;21067;-31
2022/09/01 11:18:50;;;;;;;24.80;18.98;;;26.20;55.80;;;;;;4735883;59;21501;-27
2022/09/01 11:23:51;;;;;;;23.60;18.67;;;26.30;55.80;;;;;;4757134;55;21565;-27
2022/09/01 11:28:51;;;;;;;25.62;18.55;;;26.30;55.70;;;;;;4742408;55;21051;-31
2022/09/01 11:34:08;;;;;;;27.30;18.25;;;26.30;55.80;;;;;;4767966;55;21539;-26
2022/09/01 11:40:10;;;;;;;23.75;17.58;;;26.30;55.90;;;;;;4737086;59;21516;-30
2022/09/01 11:45:27;;;;;;;21.58;16.87;;;26.30;55.90;;;;;;4753053;55;20988;-29
2022/09/01 11:50:34;;;;;;;23.77;17.83;;;26.40;56.10;;;;;;4750471;55;21055;-28
2022/09/01 11:55:50;;;;;;;24.85;20.25;;;26.40;56.50;;;;;;4736030;59;21019;-34
2022/09/01 12:00:50;;;;;;;28.77;20.20;;;26.40;56.50;;;;;;4748893;55;20983;-28
2022/09/01 12:06:02;;;;;;;27.40;19.58;;;26.50;56.80;;;;;;4753001;55;21468;-33
2022/09/01 12:11:10;;;;;;;26.50;19.48;;;26.50;56.90;;;;;;4789331;55;21624;-34
2022/09/01 12:16:20;;;;;;;29.65;18.05;;;26.50;57.00;;;;;;4741195;55;22467;-26
2022/09/01 12:21:41;;;;;;;27.62;18.80;;;26.50;56.70;;;;;;4744174;55;21064;-33
2022/09/01 12:26:43;;;;;;;25.37;18.90;;;26.50;57.50;;;;;;4753376;55;21445;-32
2022/09/01 12:31:49;;;;;;;26.30;19.37;;;26.60;57.60;;;;;;4755199;55;21521;-28
2022/09/01 12:37:35;;;;;;;30.08;19.00;;;26.60;57.70;;;;;;4738594;55;21504;-34
2022/09/01 12:42:36;;;;;;;29.35;18.55;;;26.60;58.00;;;;;;4736313;55;21054;-30
2022/09/01 12:47:47;;;;;;;28.60;18.48;;;26.60;58.20;;;;;;4738408;55;21028;-37
2022/09/01 12:53:00;;;;;;;27.55;17.87;;;26.60;58.30;;;;;;4740338;55;21039;-28
2022/09/01 12:58:06;;;;;;;24.67;17.20;;;26.60;58.40;;;;;;4740290;55;21035;-28
2022/09/01 13:03:16;;;;;;;25.03;17.87;;;26.60;58.60;;;;;;4771079;55;21000;-30
2022/09/01 13:08:27;;;;;;;22.70;17.15;;;26.60;58.50;;;;;;4772006;55;21627;-29
2022/09/01 13:13:28;;;;;;;23.10;17.20;;;26.60;58.60;;;;;;4749026;55;21067;-32
2022/09/01 13:18:29;;;;;;;22.33;16.20;;;26.60;58.80;;;;;;4741470;55;21489;-29
2022/09/01 13:23:33;;;;;;;25.92;23.20;;;26.60;58.70;;;;;;4756668;55;21023;-31
2022/09/01 13:28:34;;;;;;;25.05;21.45;;;26.60;58.20;;;;;;4753314;55;21019;-32
2022/09/01 13:33:35;;;;;;;28.42;21.87;;;26.40;56.60;;;;;;4764580;55;21031;-33
2022/09/01 13:38:37;;;;;;;33.65;23.65;;;26.20;56.70;;;;;;4751848;55;21031;-31
2022/09/01 13:43:40;;;;;;;33.55;27.15;;;26.10;56.80;;;;;;4768651;55;21473;-31
2022/09/01 13:48:41;;;;;;;35.10;26.27;;;26.00;56.80;;;;;;4773764;55;20988;-33
2022/09/01 13:53:42;;;;;;;38.80;29.73;;;25.90;56.90;;;;;;4748996;55;21000;-35
2022/09/01 13:58:42;;;;;;;28.50;24.98;;;25.80;56.70;;;;;;4747495;55;21050;-28
2022/09/01 14:03:43;;;;;;;27.40;23.42;;;25.80;56.80;;;;;;4749327;55;21575;-30
2022/09/01 14:08:44;;;;;;;31.83;24.58;;;25.80;56.90;;;;;;4750411;55;21554;-30
2022/09/01 14:13:46;;;;;;;25.08;19.95;;;25.70;56.90;;;;;;4749759;55;20995;-27
2022/09/01 14:18:46;;;;;;;25.95;20.50;;;25.70;57.10;;;;;;4764416;55;21598;-28
2022/09/01 14:23:47;;;;;;;24.40;19.45;;;25.80;57.10;;;;;;4752638;55;21003;-29
2022/09/01 14:28:51;;;;;;;24.52;19.35;;;25.80;56.90;;;;;;4736564;55;20999;-26
2022/09/01 14:33:53;;;;;;;22.33;18.20;;;25.90;57.00;;;;;;4744977;55;20983;-30
2022/09/01 14:38:53;;;;;;;20.65;17.37;;;25.90;56.80;;;;;;4751794;55;21007;-33
2022/09/01 14:43:57;;;;;;;21.45;18.12;;;26.00;56.80;;;;;;4744358;55;21106;-34
2022/09/01 14:48:59;;;;;;;20.73;17.15;;;26.00;57.00;;;;;;4741439;55;21513;-33
2022/09/01 14:54:00;;;;;;;20.73;16.70;;;26.00;56.90;;;;;;4739868;55;21118;-29
2022/09/01 14:59:01;;;;;;;20.02;17.17;;;26.00;56.90;;;;;;4741852;55;21051;-30
2022/09/01 15:04:02;;;;;;;19.10;16.75;;;26.00;56.90;;;;;;4736514;59;21063;-34
2022/09/01 15:09:03;;;;;;;20.42;15.65;;;26.00;57.00;;;;;;4764252;55;20991;-29
2022/09/01 15:14:05;;;;;;;19.62;16.27;;;26.00;57.00;;;;;;4737622;55;21080;-30
2022/09/01 15:19:08;;;;;;;19.92;16.23;;;26.00;56.90;;;;;;4803975;55;21549;-27
2022/09/01 15:24:10;;;;;;;20.25;15.95;;;26.00;56.90;;;;;;4784939;55;21521;-33
2022/09/01 15:29:12;;;;;;;21.20;17.25;;;26.10;57.10;;;;;;4755976;55;21047;-31
2022/09/01 15:34:12;;;;;;;23.05;18.52;;;26.10;56.80;;;;;;4755772;55;21059;-27
2022/09/01 15:39:13;;;;;;;25.92;20.73;;;26.10;57.10;;;;;;4735566;59;21055;-33
2022/09/01 15:44:14;;;;;;;27.15;20.65;;;26.10;56.90;;;;;;4789840;55;21548;-29
2022/09/01 15:49:16;;;;;;;29.02;20.88;;;26.10;57.00;;;;;;4736416;59;21442;-27
2022/09/01 15:54:19;;;;;;;24.02;20.23;;;26.10;57.10;;;;;;4754891;55;21554;-28
2022/09/01 15:59:20;;;;;;;24.75;20.00;;;26.10;57.20;;;;;;4752374;55;21023;-30
2022/09/01 16:04:22;;;;;;;25.95;20.58;;;26.10;57.20;;;;;;4746480;55;21600;-30
2022/09/01 16:09:25;;;;;;;25.10;19.08;;;26.10;57.30;;;;;;4752717;55;21538;-29
2022/09/01 16:14:27;;;;;;;24.92;19.27;;;26.10;57.00;;;;;;4770338;55;22169;-29
2022/09/01 16:19:55;;;;;;;23.23;19.05;;;26.10;57.30;;;;;;4735927;55;21490;-27
2022/09/01 16:25:00;;;;;;;21.70;18.65;;;26.10;57.10;;;;;;4736571;59;21004;-30
2022/09/01 16:30:07;;;;;;;24.50;17.20;;;26.10;57.20;;;;;;4744811;55;21060;-33
2022/09/01 16:35:08;;;;;;;23.27;16.92;;;26.10;57.00;;;;;;4739567;55;21545;-27
2022/09/01 16:40:39;;;;;;;21.27;16.42;;;26.10;57.00;;;;;;4764677;55;21556;-28
2022/09/01 16:47:57;;;;;;;21.02;16.87;;;26.10;57.10;;;;;;4753928;55;21003;-27
2022/09/01 16:53:15;;;;;;;22.52;17.35;;;26.10;57.20;;;;;;4753893;55;20995;-32
2022/09/01 16:58:32;;;;;;;21.73;16.73;;;26.00;57.10;;;;;;4741259;55;21008;-27
2022/09/01 17:05:08;;;;;;;18.87;15.98;;;26.10;57.00;;;;;;4741954;55;21007;-26
2022/09/01 17:10:32;;;;;;;21.60;17.15;;;26.10;57.10;;;;;;4739081;55;21035;-29
2022/09/01 17:15:40;;;;;;;21.02;16.98;;;26.10;57.30;;;;;;4743404;55;21382;-31
2022/09/01 17:20:48;;;;;;;23.30;17.23;;;26.10;57.10;;;;;;4741115;55;21540;-26
2022/09/01 17:26:16;;;;;;;19.80;16.37;;;26.00;57.30;;;;;;4790287;55;20999;-27
2022/09/01 17:35:06;;;;;;;22.70;17.12;;;26.10;57.20;;;;;;4748873;55;21019;-28
2022/09/01 17:41:54;;;;;;;20.98;16.00;;;26.10;57.30;;;;;;4737565;55;21054;-29
2022/09/01 17:48:44;;;;;;;18.70;14.52;;;26.00;57.30;;;;;;4744771;55;21529;-28
2022/09/01 17:54:42;;;;;;;19.67;14.05;;;26.00;57.20;;;;;;4740086;55;21489;-32
2022/09/01 18:02:38;;;;;;;16.17;13.02;;;26.00;57.30;;;;;;4735172;59;21007;-27
2022/09/01 18:08:14;;;;;;;15.27;12.35;;;26.00;57.40;;;;;;4757431;55;21501;-30
2022/09/01 18:16:24;;;;;;;15.93;11.05;;;26.00;57.30;;;;;;4775243;55;21079;-32
2022/09/01 18:21:35;;;;;;;15.10;12.27;;;26.00;57.30;;;;;;4765392;55;21059;-28
2022/09/01 18:26:39;;;;;;;15.40;12.18;;;26.00;57.10;;;;;;4781735;55;20980;-27
2022/09/01 18:33:15;;;;;;;14.77;13.13;;;26.00;57.20;;;;;;4736828;59;20992;-27
2022/09/01 18:39:13;;;;;;;14.98;12.60;;;26.00;57.20;;;;;;4742585;55;21064;-28
2022/09/01 18:45:49;;;;;;;17.10;13.00;;;26.00;57.60;;;;;;4745216;55;20976;-25
2022/09/01 18:50:55;;;;;;;;;;;26.00;57.10;;;;;;4799283;55;20983;-27
2022/09/01 18:57:20;;;;;;;13.63;12.10;;;26.00;57.10;;;;;;4750688;55;20080;-27
2022/09/01 19:02:47;;;;;;;14.70;11.77;;;26.00;57.00;;;;;;4743119;55;21879;-28
2022/09/01 19:09:41;;;;;;;15.02;12.05;;;26.00;57.00;;;;;;4765680;55;20987;-30
2022/09/01 19:16:47;;;;;;;12.73;11.32;;;26.00;56.90;;;;;;4746508;55;21027;-26
2022/09/01 19:21:52;;;;;;;14.05;11.30;;;26.00;56.60;;;;;;4766755;55;20975;-31
2022/09/01 19:27:20;;;;;;;12.07;9.75;;;26.00;56.90;;;;;;4788610;55;21505;-30
2022/09/01 19:32:24;;;;;;;13.30;10.15;;;25.90;56.90;;;;;;4736932;59;21008;-32
2022/09/01 19:37:26;;;;;;;11.85;10.45;;;25.90;56.70;;;;;;4746374;55;20972;-30
2022/09/01 19:42:46;;;;;;;11.05;9.85;;;25.90;56.80;;;;;;4785148;55;21102;-26
2022/09/01 19:50:53;;;;;;;12.65;9.90;;;25.90;56.80;;;;;;4764841;55;20995;-29
2022/09/01 19:58:43;;;;;;;11.35;9.50;;;25.90;56.90;;;;;;4778177;55;20999;-32
2022/09/01 20:03:49;;;;;;;14.25;9.57;;;25.90;57.00;;;;;;4744267;55;21043;-33
2022/09/01 20:09:08;;;;;;;11.80;9.70;;;25.90;57.00;;;;;;4745675;55;21028;-29
2022/09/01 20:15:47;;;;;;;11.65;9.43;;;25.90;56.90;;;;;;4736876;59;21019;-26
2022/09/01 20:20:49;;;;;;;11.07;8.35;;;25.90;57.00;;;;;;4735847;59;21040;-34
2022/09/01 20:26:02;;;;;;;11.95;8.60;;;25.90;56.90;;;;;;4762796;55;22140;-35
2022/09/01 20:31:15;;;;;;;10.68;8.98;;;25.90;56.80;;;;;;4736371;55;21517;-31
2022/09/01 20:36:29;;;;;;;9.40;7.93;;;25.90;56.90;;;;;;4736249;59;21485;-32
2022/09/01 20:44:15;;;;;;;8.73;7.37;;;25.90;56.80;;;;;;4795419;55;20988;-31
2022/09/01 20:49:20;;;;;;;11.00;7.80;;;25.90;56.90;;;;;;4786456;55;21500;-38
2022/09/01 20:54:56;;;;;;;8.75;7.15;;;25.90;56.90;;;;;;4740521;55;21075;-32
2022/09/01 21:00:27;;;;;;;10.25;7.07;;;25.90;56.90;;;;;;4776510;55;21008;-31
2022/09/01 21:07:38;;;;;;;7.55;6.50;;;25.90;56.80;;;;;;4760140;55;21047;-28
2022/09/01 21:12:53;;;;;;;7.78;6.25;;;25.90;56.80;;;;;;4753118;55;21011;-29
2022/09/01 21:21:35;;;;;;;7.53;5.87;;;25.90;56.80;;;;;;4741590;55;21039;-33
2022/09/01 21:26:37;;;;;;;5.87;5.28;;;25.90;56.70;;;;;;4736784;59;21166;-31
2022/09/01 21:31:37;;;;;;;7.00;5.30;;;25.90;56.80;;;;;;4736314;59;21051;-31
2022/09/01 21:36:38;;;;;;;5.78;5.10;;;25.90;56.80;;;;;;4751938;55;21762;-33
2022/09/01 21:41:40;;;;;;;4.35;3.92;;;25.90;56.70;;;;;;4736485;59;21019;-33
2022/09/01 21:46:41;;;;;;;6.00;4.62;;;25.80;56.70;;;;;;4736133;59;21029;-30
2022/09/01 21:51:42;;;;;;;6.37;4.25;;;25.80;56.70;;;;;;4761572;55;21019;-29
2022/09/01 21:56:43;;;;;;;5.97;4.30;;;25.80;57.00;;;;;;4746460;55;21489;-30
2022/09/01 22:01:44;;;;;;;5.90;4.28;;;25.80;56.50;;;;;;4744054;55;21848;-28
2022/09/01 22:06:46;;;;;;;4.37;3.87;;;25.80;56.70;;;;;;4752507;55;21110;-30
2022/09/01 22:11:47;;;;;;;4.00;3.58;;;25.80;56.50;;;;;;4736948;59;21119;-34
2022/09/01 22:16:48;;;;;;;5.22;3.75;;;25.90;56.80;;;;;;4736618;59;21006;-26
2022/09/01 22:21:50;;;;;;;4.50;3.72;;;25.80;56.60;;;;;;4751289;55;21023;-30
2022/09/01 22:26:50;;;;;;;4.47;3.30;;;25.80;56.70;;;;;;4737611;59;21035;-33
2022/09/01 22:31:51;;;;;;;3.35;3.05;;;25.80;56.70;;;;;;4751146;55;21047;-26
2022/09/01 22:36:52;;;;;;;3.22;2.92;;;25.80;56.50;;;;;;4755429;55;21011;-33
2022/09/01 22:41:54;;;;;;;3.42;3.08;;;25.80;56.50;;;;;;4775931;55;21039;-27
2022/09/01 22:46:55;;;;;;;3.58;3.15;;;25.80;56.70;;;;;;4751745;55;21485;-27
2022/09/01 22:51:56;;;;;;;3.42;3.00;;;25.80;56.70;;;;;;4736555;59;21015;-27
2022/09/01 22:56:56;;;;;;;4.18;3.03;;;25.80;56.70;;;;;;4745063;55;21043;-28
2022/09/01 23:02:00;;;;;;;3.40;3.10;;;25.80;56.70;;;;;;4751267;55;21027;-26
2022/09/01 23:07:03;;;;;;;2.62;2.42;;;25.80;56.50;;;;;;4737275;59;21549;-30
2022/09/01 23:12:07;;;;;;;3.03;2.72;;;25.80;56.70;;;;;;4797506;55;20987;-27
2022/09/01 23:17:08;;;;;;;2.97;2.55;;;25.80;56.80;;;;;;4736652;59;21035;-32
2022/09/01 23:22:09;;;;;;;2.70;2.50;;;25.80;56.70;;;;;;4735587;59;21078;-27
2022/09/01 23:27:10;;;;;;;3.37;2.53;;;25.80;56.80;;;;;;4736369;55;21461;-29
2022/09/01 23:32:11;;;;;;;3.00;2.60;;;25.80;56.70;;;;;;4742278;55;20995;-26
2022/09/01 23:37:12;;;;;;;3.72;2.33;;;25.80;56.70;;;;;;4749098;55;21454;-34
2022/09/01 23:42:12;;;;;;;3.55;2.30;;;25.80;56.60;;;;;;4771338;55;20999;-28
2022/09/01 23:47:13;;;;;;;2.62;2.40;;;25.80;56.40;;;;;;4745710;55;21099;-36
2022/09/01 23:52:15;;;;;;;3.65;2.50;;;25.80;56.60;;;;;;4750172;55;21528;-37
2022/09/01 23:57:15;;;;;;;2.30;2.00;;;25.80;56.50;;;;;;4765556;55;21426;-33
